Time;durP1;ratioP1;P1;durP2;ratioP2;P2;SDS_P1;SDS_P2;PMS_P1;PMS_P2;Temp;Humidity;BMP_temperature;BMP_pressure;BME280_temperature;BME280_humidity;BME280_pressure;Samples;Min_cycle;Max_cycle;Signal;HPM_P1;HPM_P2
2021/06/29 00:00:23;;;;;;;5.40;4.20;;;22.70;66.80;;;;;;5073952;28;20039;-62
2021/06/29 00:03:01;;;;;;;4.60;4.10;;;22.60;67.10;;;;;;5073992;28;20104;-62
2021/06/29 00:05:31;;;;;;;7.95;4.10;;;22.60;67.10;;;;;;5073579;28;20028;-62
2021/06/29 00:07:57;;;;;;;5.50;4.47;;;22.60;67.40;;;;;;5073819;28;20059;-62
2021/06/29 00:10:27;;;;;;;5.30;4.50;;;22.50;67.70;;;;;;5072771;28;20032;-62
2021/06/29 00:12:53;;;;;;;6.93;4.25;;;22.50;67.50;;;;;;5073365;28;20025;-62
2021/06/29 00:15:20;;;;;;;11.73;4.53;;;22.50;67.70;;;;;;5073776;28;20119;-61
2021/06/29 00:17:46;;;;;;;7.85;4.45;;;22.50;67.80;;;;;;5073524;28;20027;-62
2021/06/29 00:20:13;;;;;;;6.63;4.45;;;22.40;67.90;;;;;;5073728;28;20047;-62
2021/06/29 00:22:39;;;;;;;5.63;4.43;;;22.50;67.90;;;;;;5045793;28;20046;-62
2021/06/29 00:25:05;;;;;;;7.15;4.65;;;22.50;68.00;;;;;;5053284;28;20370;-62
2021/06/29 00:27:31;;;;;;;4.75;3.80;;;22.50;67.90;;;;;;5053884;28;20032;-62
2021/06/29 00:29:56;;;;;;;6.28;4.50;;;22.40;67.90;;;;;;5053440;28;20458;-61
2021/06/29 00:32:22;;;;;;;5.88;4.47;;;22.40;68.00;;;;;;5053182;28;20507;-62
2021/06/29 00:34:48;;;;;;;4.50;4.10;;;22.40;68.10;;;;;;5053246;28;20457;-62
2021/06/29 00:37:14;;;;;;;5.55;4.35;;;22.30;68.10;;;;;;5053269;28;20372;-62
2021/06/29 00:39:40;;;;;;;4.63;3.90;;;22.30;68.20;;;;;;5053186;28;20040;-63
2021/06/29 00:42:06;;;;;;;5.93;4.38;;;22.20;68.30;;;;;;5053278;28;20025;-63
2021/06/29 00:44:31;;;;;;;5.57;3.95;;;22.20;68.40;;;;;;5053854;28;20025;-63
2021/06/29 00:46:58;;;;;;;5.68;4.30;;;22.20;68.70;;;;;;5053180;28;20032;-62
2021/06/29 00:49:24;;;;;;;7.22;4.40;;;22.10;68.60;;;;;;5053033;28;20022;-63
2021/06/29 00:51:49;;;;;;;4.82;3.83;;;22.10;69.10;;;;;;5053082;28;20374;-63
2021/06/29 00:54:15;;;;;;;5.00;4.05;;;22.10;68.60;;;;;;5053054;28;20023;-62
2021/06/29 00:56:43;;;;;;;4.97;4.47;;;22.10;68.60;;;;;;5053219;28;20104;-63
2021/06/29 00:59:09;;;;;;;5.90;4.28;;;22.10;68.80;;;;;;5052961;28;20108;-63
2021/06/29 01:01:35;;;;;;;5.28;4.38;;;22.10;68.80;;;;;;5053623;28;20056;-63
2021/06/29 01:04:00;;;;;;;6.15;4.32;;;22.00;68.80;;;;;;5052952;28;20029;-62
2021/06/29 01:06:28;;;;;;;5.88;4.95;;;22.00;68.90;;;;;;5055970;28;20028;-63
2021/06/29 01:08:54;;;;;;;7.55;4.38;;;22.00;69.00;;;;;;5056726;28;20060;-63
2021/06/29 01:11:20;;;;;;;5.47;4.50;;;21.90;69.00;;;;;;5056412;28;20036;-62
2021/06/29 01:13:46;;;;;;;5.85;4.38;;;21.90;69.00;;;;;;5056283;28;20111;-63
2021/06/29 01:16:13;;;;;;;5.43;4.65;;;21.90;69.20;;;;;;5056745;28;20480;-63
2021/06/29 01:18:42;;;;;;;6.93;4.68;;;21.90;69.20;;;;;;5060585;28;20460;-62
2021/06/29 01:21:16;;;;;;;5.68;4.57;;;21.90;69.30;;;;;;5074871;28;20025;-63
2021/06/29 01:23:47;;;;;;;5.82;4.30;;;21.90;69.30;;;;;;5056102;28;20238;-63
2021/06/29 01:29:05;;;;;;;4.65;3.92;;;22.00;69.20;;;;;;5056089;28;20052;-63
2021/06/29 01:31:33;;;;;;;5.30;4.10;;;22.00;69.20;;;;;;5056425;28;20036;-63
2021/06/29 01:34:00;;;;;;;6.00;4.25;;;22.00;69.10;;;;;;5056338;28;20036;-63
2021/06/29 01:36:37;;;;;;;5.72;4.30;;;22.00;69.20;;;;;;5056830;28;20108;-63
2021/06/29 01:39:12;;;;;;;6.03;4.18;;;22.00;69.20;;;;;;5056364;28;20036;-63
2021/06/29 01:41:38;;;;;;;5.40;4.35;;;22.00;69.30;;;;;;5055886;28;20044;-63
2021/06/29 01:44:13;;;;;;;5.30;4.47;;;22.00;69.10;;;;;;5056027;28;20021;-62
2021/06/29 01:46:40;;;;;;;6.10;4.35;;;22.00;69.80;;;;;;5056003;28;20484;-63
2021/06/29 01:49:06;;;;;;;4.90;4.00;;;22.00;69.20;;;;;;5056043;28;20035;-63
2021/06/29 01:51:32;;;;;;;8.30;4.60;;;22.00;69.30;;;;;;5055737;28;20501;-63
2021/06/29 01:53:58;;;;;;;5.38;4.25;;;22.00;69.40;;;;;;5056289;28;20472;-63
2021/06/29 01:56:33;;;;;;;5.15;4.00;;;22.00;69.20;;;;;;5049039;28;20041;-63
2021/06/29 01:59:02;;;;;;;4.55;4.05;;;22.00;69.10;;;;;;5056100;28;20020;-63
2021/06/29 02:01:28;;;;;;;5.88;4.10;;;22.00;69.20;;;;;;5055778;28;20083;-63
2021/06/29 02:03:54;;;;;;;5.70;3.92;;;22.00;69.10;;;;;;5055692;28;20500;-63
2021/06/29 02:06:19;;;;;;;5.57;4.43;;;22.00;69.20;;;;;;5055573;28;20021;-63
2021/06/29 02:08:45;;;;;;;5.75;4.82;;;22.00;69.40;;;;;;5055628;28;20048;-63
2021/06/29 02:11:12;;;;;;;5.60;4.60;;;22.00;69.50;;;;;;5072061;28;20020;-63
2021/06/29 02:13:38;;;;;;;5.45;4.38;;;22.00;69.30;;;;;;5075218;28;20021;-63
2021/06/29 02:16:04;;;;;;;5.25;4.18;;;22.00;69.30;;;;;;5074885;28;20023;-63
2021/06/29 02:18:30;;;;;;;5.25;3.72;;;22.00;69.40;;;;;;5074834;28;20020;-63
2021/06/29 02:20:56;;;;;;;5.80;4.75;;;22.00;69.10;;;;;;5075370;28;20024;-63
2021/06/29 02:23:23;;;;;;;4.90;4.30;;;22.00;69.10;;;;;;5042097;28;20119;-63
2021/06/29 02:25:49;;;;;;;6.25;4.70;;;22.10;69.20;;;;;;5055152;28;20033;-63
2021/06/29 02:28:14;;;;;;;6.45;4.63;;;22.10;69.10;;;;;;5071994;28;20032;-63
2021/06/29 02:30:43;;;;;;;6.47;4.50;;;22.10;69.00;;;;;;5075215;28;20060;-63
2021/06/29 02:33:09;;;;;;;5.75;4.53;;;22.20;69.00;;;;;;5075033;28;20025;-63
2021/06/29 02:35:35;;;;;;;4.32;3.92;;;22.20;68.70;;;;;;5074996;28;20044;-63
2021/06/29 02:38:01;;;;;;;4.75;4.25;;;22.30;68.80;;;;;;5067462;28;20049;-63
2021/06/29 02:40:27;;;;;;;7.80;4.78;;;22.30;68.90;;;;;;5054870;28;20094;-62
2021/06/29 02:42:52;;;;;;;5.05;4.20;;;22.40;68.90;;;;;;5054798;28;20118;-63
2021/06/29 02:45:20;;;;;;;5.60;4.00;;;22.50;68.70;;;;;;5055349;28;20024;-63
2021/06/29 02:47:47;;;;;;;4.57;4.10;;;22.50;68.60;;;;;;5054773;28;20481;-62
2021/06/29 02:50:14;;;;;;;5.18;4.30;;;22.60;68.50;;;;;;5054622;28;20090;-62
2021/06/29 02:52:40;;;;;;;5.20;4.40;;;22.60;68.40;;;;;;5054855;28;20032;-62
2021/06/29 02:55:11;;;;;;;6.10;4.30;;;22.70;68.40;;;;;;5054845;28;20045;-63
2021/06/29 02:57:37;;;;;;;;;;;22.80;68.20;;;;;;5038358;28;20028;-62
2021/06/29 03:00:08;;;;;;;4.43;3.90;;;22.80;68.40;;;;;;5034695;28;19908;-62
2021/06/29 03:02:34;;;;;;;7.05;4.15;;;22.90;68.20;;;;;;5073585;28;20032;-62
2021/06/29 03:05:01;;;;;;;7.20;4.50;;;23.00;68.00;;;;;;5074296;28;20422;-62
2021/06/29 03:07:27;;;;;;;7.07;4.60;;;23.00;67.90;;;;;;5073951;28;20031;-62
2021/06/29 03:09:53;;;;;;;6.25;4.28;;;23.00;67.80;;;;;;5074275;28;20099;-62
2021/06/29 03:12:18;;;;;;;6.13;4.55;;;23.10;67.70;;;;;;5074202;28;20408;-62
2021/06/29 03:14:44;;;;;;;5.32;4.53;;;23.10;67.50;;;;;;5074047;28;20477;-62
2021/06/29 03:17:10;;;;;;;5.57;4.53;;;23.10;67.70;;;;;;5074150;28;20384;-62
2021/06/29 03:19:36;;;;;;;9.10;4.60;;;23.10;67.70;;;;;;5073980;28;20020;-62
2021/06/29 03:22:04;;;;;;;5.70;4.20;;;23.20;67.70;;;;;;5058425;28;20076;-62
2021/06/29 03:24:29;;;;;;;4.90;4.40;;;23.30;67.80;;;;;;5054259;28;20043;-62
2021/06/29 03:26:56;;;;;;;5.55;4.70;;;23.40;67.90;;;;;;5054070;28;20029;-62
2021/06/29 03:29:22;;;;;;;5.93;4.60;;;23.50;67.80;;;;;;5053589;28;20029;-62
2021/06/29 03:31:47;;;;;;;5.22;4.72;;;23.60;67.50;;;;;;5053802;28;20035;-62
2021/06/29 03:34:14;;;;;;;6.50;4.78;;;23.70;67.20;;;;;;5054641;28;20377;-63
2021/06/29 03:36:41;;;;;;;5.85;4.80;;;23.80;67.20;;;;;;5053805;28;20027;-63
2021/06/29 03:39:07;;;;;;;6.13;4.22;;;23.90;67.30;;;;;;5053794;28;20079;-63
2021/06/29 03:41:33;;;;;;;6.30;4.75;;;24.20;67.70;;;;;;5053645;28;20033;-63
2021/06/29 03:43:59;;;;;;;5.05;4.55;;;24.50;67.00;;;;;;5054062;28;20025;-63
2021/06/29 03:46:25;;;;;;;7.18;4.60;;;24.80;66.30;;;;;;5053912;28;20090;-63
2021/06/29 03:48:50;;;;;;;5.00;4.10;;;25.20;65.50;;;;;;5053636;28;20029;-63
2021/06/29 03:51:16;;;;;;;5.65;4.43;;;25.40;64.20;;;;;;5054235;28;20116;-63
2021/06/29 03:53:42;;;;;;;6.70;4.50;;;25.60;63.90;;;;;;5053648;28;20036;-62
2021/06/29 03:56:23;;;;;;;6.47;4.55;;;25.60;63.50;;;;;;5048961;28;20073;-63
2021/06/29 03:58:53;;;;;;;6.30;4.32;;;25.90;63.30;;;;;;5048891;28;20493;-63
2021/06/29 04:01:19;;;;;;;5.85;5.03;;;26.40;63.20;;;;;;5053395;28;20104;-63
2021/06/29 04:03:45;;;;;;;6.15;4.40;;;27.00;62.70;;;;;;5053503;28;20068;-63
2021/06/29 04:06:11;;;;;;;10.25;5.15;;;27.80;61.20;;;;;;5053274;28;20123;-63
2021/06/29 04:08:36;;;;;;;5.72;3.80;;;28.60;60.10;;;;;;5056620;28;20029;-63
2021/06/29 04:11:02;;;;;;;4.63;4.22;;;29.50;58.80;;;;;;5073495;28;20093;-63
2021/06/29 04:13:27;;;;;;;4.03;3.40;;;30.50;57.70;;;;;;5073303;28;20025;-63
2021/06/29 04:15:53;;;;;;;4.15;3.70;;;31.40;55.80;;;;;;5073501;28;20479;-63
2021/06/29 04:18:20;;;;;;;3.63;3.33;;;32.20;54.60;;;;;;5073337;28;20025;-63
2021/06/29 04:20:45;;;;;;;3.60;3.25;;;32.90;53.20;;;;;;5073573;28;20349;-63
2021/06/29 04:23:11;;;;;;;4.18;3.70;;;33.60;52.20;;;;;;5063786;28;20103;-63
2021/06/29 04:25:37;;;;;;;5.05;3.80;;;34.20;51.10;;;;;;5053554;28;20021;-63
2021/06/29 04:28:03;;;;;;;3.97;3.60;;;34.90;51.10;;;;;;5053414;28;20021;-63
2021/06/29 04:30:29;;;;;;;4.38;3.50;;;35.30;49.20;;;;;;5053391;28;20029;-63
2021/06/29 04:32:54;;;;;;;22.42;5.15;;;35.50;48.40;;;;;;5052712;28;20091;-63
2021/06/29 04:35:20;;;;;;;4.43;3.72;;;35.70;48.30;;;;;;5053052;28;20023;-63
2021/06/29 04:37:46;;;;;;;4.38;3.50;;;35.90;47.80;;;;;;5053494;28;20064;-63
2021/06/29 04:40:12;;;;;;;4.35;3.60;;;35.90;47.10;;;;;;5054653;28;20025;-63
2021/06/29 04:42:38;;;;;;;4.22;3.83;;;35.70;47.10;;;;;;5057678;28;20033;-63
2021/06/29 04:45:04;;;;;;;5.20;3.47;;;35.60;47.30;;;;;;5057027;28;20449;-63
2021/06/29 04:47:36;;;;;;;4.78;3.50;;;35.90;47.40;;;;;;5056907;28;20029;-63
2021/06/29 04:50:05;;;;;;;4.45;3.95;;;36.40;47.10;;;;;;5057211;28;20488;-63
2021/06/29 04:52:34;;;;;;;4.20;3.80;;;36.90;46.50;;;;;;5057181;28;20029;-63
2021/06/29 04:55:00;;;;;;;4.28;3.88;;;37.40;46.20;;;;;;5056868;28;20032;-63
2021/06/29 04:57:25;;;;;;;3.70;3.40;;;37.70;45.40;;;;;;5041506;28;20022;-63
2021/06/29 04:59:51;;;;;;;4.90;4.22;;;37.60;44.80;;;;;;5046930;28;20380;-63
2021/06/29 05:02:17;;;;;;;4.95;4.13;;;37.50;44.80;;;;;;5056768;28;20036;-61
2021/06/29 05:04:43;;;;;;;5.32;4.70;;;37.20;44.70;;;;;;5056342;28;20483;-61
2021/06/29 05:07:08;;;;;;;4.38;3.92;;;37.10;44.90;;;;;;5055431;28;20453;-62
2021/06/29 05:09:34;;;;;;;5.47;4.13;;;37.00;45.20;;;;;;5046145;28;20479;-62
2021/06/29 05:12:00;;;;;;;4.63;3.88;;;36.80;45.20;;;;;;5056987;28;20056;-62
2021/06/29 05:14:26;;;;;;;3.63;3.33;;;36.60;45.50;;;;;;5057654;28;20404;-62
2021/06/29 05:16:52;;;;;;;4.25;3.85;;;36.50;45.50;;;;;;5057135;28;20068;-62
2021/06/29 05:19:17;;;;;;;4.28;3.88;;;36.60;45.50;;;;;;5057270;28;20021;-62
2021/06/29 05:21:43;;;;;;;4.93;4.10;;;36.40;45.10;;;;;;5058018;28;20048;-61
2021/06/29 05:24:09;;;;;;;4.65;3.90;;;36.00;45.00;;;;;;5052486;28;20037;-61
2021/06/29 05:26:34;;;;;;;4.30;3.90;;;35.50;45.50;;;;;;5049612;28;20040;-61
2021/06/29 05:29:01;;;;;;;7.57;4.07;;;34.90;45.80;;;;;;5045128;28;20053;-61
2021/06/29 05:31:27;;;;;;;4.63;3.92;;;34.30;46.40;;;;;;5052241;28;20028;-61
2021/06/29 05:33:52;;;;;;;5.00;4.30;;;33.60;47.20;;;;;;5055376;28;20040;-61
2021/06/29 05:36:18;;;;;;;4.97;4.28;;;32.90;47.90;;;;;;5052135;28;20025;-61
2021/06/29 05:38:44;;;;;;;5.90;4.32;;;32.40;48.80;;;;;;5055332;28;20077;-61
2021/06/29 05:41:09;;;;;;;4.78;4.15;;;31.90;49.50;;;;;;5052467;28;20076;-64
2021/06/29 05:43:35;;;;;;;5.97;4.38;;;31.40;50.30;;;;;;5047844;28;20059;-64
2021/06/29 05:46:01;;;;;;;5.70;4.30;;;31.00;50.80;;;;;;5048397;28;20082;-64
2021/06/29 05:48:31;;;;;;;5.18;4.50;;;30.70;51.40;;;;;;5046597;28;20075;-63
2021/06/29 05:50:57;;;;;;;5.07;4.57;;;30.30;51.80;;;;;;5043722;28;20064;-63
2021/06/29 05:53:22;;;;;;;4.43;4.00;;;30.10;52.50;;;;;;5042412;28;20029;-63
2021/06/29 05:55:48;;;;;;;5.05;4.45;;;29.80;53.20;;;;;;5044143;28;20051;-63
2021/06/29 05:58:15;;;;;;;4.80;4.38;;;29.70;53.60;;;;;;5034188;28;20377;-63
2021/06/29 06:00:41;;;;;;;5.70;4.63;;;29.50;54.00;;;;;;5042193;28;20427;-63
2021/06/29 06:03:06;;;;;;;4.85;4.30;;;29.40;54.30;;;;;;5045159;28;20026;-63
2021/06/29 06:05:32;;;;;;;5.00;4.50;;;29.30;54.60;;;;;;5038172;28;20082;-63
2021/06/29 06:07:57;;;;;;;5.85;4.63;;;29.30;54.90;;;;;;5040361;28;20064;-63
2021/06/29 06:10:23;;;;;;;5.65;5.03;;;29.30;55.10;;;;;;5040233;28;20033;-63
2021/06/29 06:12:49;;;;;;;6.88;4.75;;;29.30;55.30;;;;;;5032245;28;20439;-63
2021/06/29 06:15:15;;;;;;;5.30;4.80;;;29.30;55.30;;;;;;5040799;28;20079;-63
2021/06/29 06:17:41;;;;;;;5.28;4.63;;;29.20;55.30;;;;;;5038375;28;20039;-63
2021/06/29 06:20:08;;;;;;;6.97;4.60;;;29.30;55.50;;;;;;5038579;28;20036;-63
2021/06/29 06:22:34;;;;;;;5.32;4.82;;;29.30;55.60;;;;;;5036212;28;20037;-63
2021/06/29 06:25:00;;;;;;;7.30;5.32;;;29.20;55.80;;;;;;5038605;28;20071;-63
2021/06/29 06:27:26;;;;;;;5.55;5.05;;;29.20;55.90;;;;;;5030879;28;20047;-63
2021/06/29 06:29:52;;;;;;;8.70;5.18;;;29.30;55.90;;;;;;5039810;28;20033;-63
2021/06/29 06:32:17;;;;;;;6.57;5.07;;;29.30;56.10;;;;;;5035170;28;20040;-63
2021/06/29 06:34:43;;;;;;;6.45;5.53;;;29.30;56.10;;;;;;5034537;28;20021;-64
2021/06/29 06:37:09;;;;;;;6.22;5.25;;;29.30;56.20;;;;;;5041091;28;20087;-63
2021/06/29 06:39:34;;;;;;;7.00;5.32;;;29.20;56.30;;;;;;5041872;28;20029;-63
2021/06/29 06:42:00;;;;;;;7.93;5.28;;;29.20;56.30;;;;;;5039801;28;20646;-63
2021/06/29 06:44:26;;;;;;;7.07;5.50;;;29.10;56.30;;;;;;5044832;28;20392;-63
2021/06/29 06:46:52;;;;;;;8.02;6.05;;;28.90;56.90;;;;;;5040692;28;20033;-63
2021/06/29 06:49:18;;;;;;;6.45;5.85;;;28.80;57.30;;;;;;5033700;28;20028;-63
2021/06/29 06:51:43;;;;;;;6.88;5.57;;;28.80;57.70;;;;;;5037801;28;20028;-63
2021/06/29 06:54:09;;;;;;;6.55;5.95;;;28.70;58.20;;;;;;5034083;28;20029;-63
2021/06/29 06:56:35;;;;;;;5.82;5.22;;;28.70;58.30;;;;;;5033162;28;20119;-66
2021/06/29 06:59:01;;;;;;;10.00;5.72;;;28.70;58.40;;;;;;5042377;28;20023;-65
2021/06/29 07:01:26;;;;;;;5.93;5.32;;;28.70;58.70;;;;;;5039706;28;20037;-66
2021/06/29 07:03:52;;;;;;;6.00;5.40;;;28.70;58.80;;;;;;5035016;28;20095;-65
2021/06/29 07:06:18;;;;;;;6.05;5.43;;;28.70;58.90;;;;;;5032329;28;20040;-62
2021/06/29 07:08:43;;;;;;;6.25;5.65;;;28.70;59.10;;;;;;5034916;28;20056;-61
2021/06/29 07:11:09;;;;;;;6.10;5.47;;;28.70;59.20;;;;;;5027288;28;20091;-64
2021/06/29 07:13:36;;;;;;;6.88;5.35;;;28.60;59.00;;;;;;5033664;28;20445;-66
2021/06/29 07:16:02;;;;;;;6.60;6.00;;;28.60;58.90;;;;;;5032235;28;20028;-62
2021/06/29 07:18:28;;;;;;;6.65;5.55;;;28.60;59.10;;;;;;5027444;28;20037;-64
2021/06/29 07:20:54;;;;;;;5.45;4.72;;;28.50;59.40;;;;;;5032991;28;20040;-65
2021/06/29 07:23:20;;;;;;;7.90;5.97;;;28.40;59.40;;;;;;5030797;28;20167;-64
2021/06/29 07:25:46;;;;;;;7.50;5.20;;;28.40;60.00;;;;;;5030052;28;20166;-63
2021/06/29 07:28:13;;;;;;;7.15;5.20;;;28.40;59.70;;;;;;5027843;28;20462;-64
2021/06/29 07:30:39;;;;;;;6.40;4.97;;;28.30;59.40;;;;;;5029259;28;20614;-63
2021/06/29 07:33:07;;;;;;;6.20;5.60;;;28.30;59.70;;;;;;5033528;28;20052;-64
2021/06/29 07:35:33;;;;;;;5.65;4.93;;;28.30;59.60;;;;;;5033744;28;20083;-63
2021/06/29 07:38:02;;;;;;;6.50;5.20;;;28.40;59.60;;;;;;5037148;28;20663;-63
2021/06/29 07:40:31;;;;;;;8.70;5.10;;;28.30;59.60;;;;;;5032241;28;20140;-63
2021/06/29 07:42:58;;;;;;;5.47;4.82;;;28.30;59.60;;;;;;5033445;28;20029;-63
2021/06/29 07:45:26;;;;;;;5.05;4.55;;;28.40;59.60;;;;;;5029866;28;20075;-62
2021/06/29 07:47:52;;;;;;;5.53;4.50;;;28.40;59.30;;;;;;5028306;28;20044;-64
2021/06/29 07:50:18;;;;;;;5.30;4.80;;;28.40;58.90;;;;;;5033402;28;20098;-62
2021/06/29 07:52:44;;;;;;;6.28;5.30;;;28.40;58.90;;;;;;5035412;28;20528;-63
2021/06/29 07:55:10;;;;;;;6.18;4.95;;;28.40;58.60;;;;;;5028030;28;20048;-66
2021/06/29 07:57:36;;;;;;;5.65;4.63;;;28.30;58.70;;;;;;5027157;28;20028;-65
2021/06/29 08:00:05;;;;;;;6.05;5.40;;;28.30;58.80;;;;;;5026022;28;20037;-66
2021/06/29 08:02:30;;;;;;;7.47;5.45;;;28.30;58.90;;;;;;5026645;28;20061;-64
2021/06/29 08:04:56;;;;;;;6.63;5.40;;;28.20;58.90;;;;;;5032673;28;20132;-65
2021/06/29 08:07:22;;;;;;;6.20;5.53;;;28.20;59.20;;;;;;5029612;28;20033;-64
2021/06/29 08:09:47;;;;;;;5.20;4.63;;;28.20;59.40;;;;;;5033219;28;20039;-64
2021/06/29 08:12:13;;;;;;;5.65;5.05;;;28.20;59.60;;;;;;5033495;28;20032;-63
2021/06/29 08:14:39;;;;;;;6.45;4.78;;;28.20;59.60;;;;;;5029260;28;20040;-64
2021/06/29 08:17:06;;;;;;;6.65;5.20;;;28.10;59.40;;;;;;5032682;28;20060;-65
2021/06/29 08:19:32;;;;;;;5.10;4.60;;;28.10;59.20;;;;;;5032145;28;20363;-63
2021/06/29 08:21:58;;;;;;;4.93;4.40;;;28.10;59.30;;;;;;5034597;28;20079;-64
2021/06/29 08:24:24;;;;;;;5.10;4.13;;;28.10;59.20;;;;;;5036115;28;20029;-64
2021/06/29 08:26:50;;;;;;;4.47;4.05;;;28.10;59.30;;;;;;5036904;28;20404;-64
2021/06/29 08:29:15;;;;;;;4.35;3.95;;;28.10;59.10;;;;;;5034684;28;20127;-67
2021/06/29 08:31:41;;;;;;;4.18;3.78;;;28.10;59.00;;;;;;5036030;28;20112;-63
2021/06/29 08:34:07;;;;;;;5.32;3.95;;;28.10;59.00;;;;;;5031795;28;20029;-61
2021/06/29 08:36:34;;;;;;;5.82;4.20;;;28.10;59.30;;;;;;5034505;28;20108;-63
2021/06/29 08:39:00;;;;;;;6.22;4.65;;;28.10;59.10;;;;;;5035738;28;20473;-63
2021/06/29 08:41:26;;;;;;;5.30;4.25;;;28.10;59.10;;;;;;5037177;28;20137;-62
2021/06/29 08:43:52;;;;;;;6.15;3.92;;;28.10;59.10;;;;;;5028922;28;20781;-62
2021/06/29 08:46:18;;;;;;;3.95;3.53;;;28.10;58.90;;;;;;5021331;28;20029;-62
2021/06/29 08:48:44;;;;;;;4.10;3.70;;;28.10;58.50;;;;;;5028039;28;20474;-62
2021/06/29 08:51:10;;;;;;;4.38;3.97;;;28.10;58.30;;;;;;5031870;28;20031;-62
2021/06/29 08:53:36;;;;;;;5.60;4.18;;;28.00;58.40;;;;;;5033291;28;20131;-64
2021/06/29 08:56:03;;;;;;;4.13;3.72;;;28.00;58.10;;;;;;5036718;28;20029;-64
2021/06/29 08:58:32;;;;;;;4.00;3.55;;;27.90;58.20;;;;;;5030933;28;20123;-65
2021/06/29 09:00:59;;;;;;;4.60;3.50;;;27.90;58.30;;;;;;5029679;28;20044;-65
2021/06/29 09:03:25;;;;;;;4.00;3.58;;;27.90;58.30;;;;;;5031788;28;20037;-65
2021/06/29 09:05:53;;;;;;;5.30;3.83;;;27.80;58.40;;;;;;5033588;28;20041;-64
2021/06/29 09:08:21;;;;;;;5.97;4.13;;;27.80;58.50;;;;;;5035368;28;20059;-65
2021/06/29 09:11:33;;;;;;;4.28;3.63;;;27.80;58.60;;;;;;5035340;28;20040;-63
2021/06/29 09:14:08;;;;;;;3.90;3.50;;;27.80;58.70;;;;;;5014694;28;20080;-65
2021/06/29 09:16:34;;;;;;;4.20;3.70;;;27.80;58.40;;;;;;5016146;28;20117;-65
2021/06/29 09:19:00;;;;;;;6.70;4.15;;;27.70;58.30;;;;;;5029134;28;20045;-65
2021/06/29 09:21:26;;;;;;;4.53;4.10;;;27.70;58.20;;;;;;5039999;28;20129;-65
2021/06/29 09:23:53;;;;;;;4.05;3.40;;;27.70;58.40;;;;;;5035441;28;20456;-65
2021/06/29 09:26:26;;;;;;;3.75;3.40;;;27.60;57.70;;;;;;5038380;28;20063;-64
2021/06/29 09:28:59;;;;;;;3.90;3.60;;;27.60;57.50;;;;;;5035287;28;20036;-65
2021/06/29 09:31:28;;;;;;;3.40;3.10;;;27.50;57.80;;;;;;5037903;28;20043;-63
2021/06/29 09:33:55;;;;;;;3.90;3.50;;;27.50;57.60;;;;;;5032082;28;20025;-63
2021/06/29 09:36:23;;;;;;;3.88;3.25;;;27.40;57.60;;;;;;5029164;28;20364;-63
2021/06/29 09:38:52;;;;;;;4.78;3.30;;;27.40;57.60;;;;;;5029883;28;20109;-62
2021/06/29 09:41:23;;;;;;;4.43;3.55;;;27.40;57.40;;;;;;5035346;28;20048;-64
2021/06/29 09:43:54;;;;;;;3.97;3.38;;;27.30;57.50;;;;;;5034558;28;20057;-64
2021/06/29 09:46:22;;;;;;;3.97;3.58;;;27.30;57.80;;;;;;5031596;28;20094;-61
2021/06/29 09:48:56;;;;;;;3.30;3.00;;;27.20;57.70;;;;;;5030656;28;20043;-61
2021/06/29 09:51:30;;;;;;;3.85;3.25;;;27.20;57.90;;;;;;5033281;28;20036;-64
2021/06/29 09:54:02;;;;;;;4.22;3.33;;;27.20;58.00;;;;;;5033377;28;20022;-64
2021/06/29 09:56:40;;;;;;;3.88;3.50;;;27.20;58.50;;;;;;5033705;28;20036;-64
2021/06/29 09:59:12;;;;;;;3.90;3.50;;;27.10;58.40;;;;;;5036762;28;20115;-65
2021/06/29 10:01:38;;;;;;;4.38;3.42;;;27.20;58.40;;;;;;5032844;28;20124;-64
2021/06/29 10:04:05;;;;;;;4.95;3.33;;;27.10;58.50;;;;;;5033144;28;20121;-65
2021/06/29 10:06:37;;;;;;;3.90;3.60;;;27.10;58.70;;;;;;5028952;28;20595;-66
2021/06/29 10:09:02;;;;;;;3.63;3.33;;;27.10;59.00;;;;;;5029349;28;20049;-65
2021/06/29 10:11:33;;;;;;;4.97;3.50;;;27.10;58.70;;;;;;5032108;28;20067;-65
2021/06/29 10:14:05;;;;;;;5.07;3.90;;;27.10;58.60;;;;;;5025200;28;20079;-65
2021/06/29 10:16:48;;;;;;;3.78;3.47;;;27.10;58.70;;;;;;5031515;28;20083;-65
2021/06/29 10:19:24;;;;;;;4.20;3.80;;;27.10;58.40;;;;;;5027102;28;20112;-64
2021/06/29 10:21:55;;;;;;;5.10;3.75;;;27.10;58.80;;;;;;5036765;28;20102;-65
2021/06/29 10:24:21;;;;;;;;;;;27.20;58.70;;;;;;5035990;28;20033;-65
2021/06/29 10:26:49;;;;;;;6.60;3.58;;;27.10;58.80;;;;;;5031294;28;19958;-65
2021/06/29 10:29:17;;;;;;;4.28;3.88;;;27.10;58.80;;;;;;5034596;28;20056;-65
2021/06/29 10:31:48;;;;;;;4.15;3.63;;;27.10;59.10;;;;;;5032013;28;20028;-66
2021/06/29 10:34:15;;;;;;;3.80;3.40;;;27.10;58.70;;;;;;5032476;28;20025;-65
2021/06/29 10:36:51;;;;;;;6.38;3.95;;;27.20;58.60;;;;;;5035480;28;20040;-65
2021/06/29 10:39:19;;;;;;;4.93;3.75;;;27.20;58.60;;;;;;5034900;28;20874;-65
2021/06/29 10:42:06;;;;;;;4.30;3.90;;;27.10;58.80;;;;;;5034202;28;20029;-66
2021/06/29 10:44:41;;;;;;;4.43;3.60;;;27.20;58.90;;;;;;5037577;28;20078;-64
2021/06/29 10:47:30;;;;;;;3.90;3.50;;;27.10;58.90;;;;;;5029037;28;20036;-64
2021/06/29 10:49:58;;;;;;;4.13;3.42;;;27.10;59.10;;;;;;5031415;28;20037;-66
2021/06/29 10:52:24;;;;;;;4.80;3.22;;;27.10;59.50;;;;;;5033017;28;20048;-64
2021/06/29 10:55:17;;;;;;;5.13;3.50;;;27.10;59.10;;;;;;5031753;28;20022;-65
2021/06/29 10:57:50;;;;;;;4.07;3.67;;;27.00;59.00;;;;;;5029615;28;20128;-64
2021/06/29 11:00:16;;;;;;;3.80;3.50;;;27.00;58.80;;;;;;5031223;28;20116;-64
2021/06/29 11:02:42;;;;;;;4.10;3.67;;;26.90;59.10;;;;;;5029404;28;20868;-64
2021/06/29 11:05:11;;;;;;;4.68;3.40;;;26.90;59.00;;;;;;5022386;28;20033;-65
2021/06/29 11:07:42;;;;;;;4.10;3.60;;;26.90;58.90;;;;;;5027951;28;20564;-64
2021/06/29 11:10:14;;;;;;;4.97;3.85;;;26.90;59.00;;;;;;5022810;28;20205;-65
2021/06/29 11:12:52;;;;;;;4.40;3.45;;;26.90;59.20;;;;;;5027402;28;20040;-64
2021/06/29 11:15:19;;;;;;;4.35;3.70;;;26.90;59.30;;;;;;5026823;28;20041;-64
2021/06/29 11:17:50;;;;;;;4.70;3.50;;;26.90;58.60;;;;;;5028781;28;20033;-64
2021/06/29 11:20:19;;;;;;;;;;;26.90;57.70;;;;;;5024587;28;20059;-64
2021/06/29 11:22:57;;;;;;;3.97;3.03;;;26.80;57.90;;;;;;5028708;28;19916;-62
2021/06/29 11:25:39;;;;;;;4.43;3.17;;;26.80;57.30;;;;;;5027556;28;20034;-62
2021/06/29 11:28:22;;;;;;;7.13;3.20;;;26.90;56.90;;;;;;5031257;28;20068;-61
2021/06/29 11:30:53;;;;;;;8.10;3.53;;;26.90;56.60;;;;;;5031351;28;20025;-62
2021/06/29 11:33:39;;;;;;;5.57;3.20;;;26.90;56.90;;;;;;5029671;28;20117;-61
2021/06/29 11:36:25;;;;;;;5.03;3.47;;;26.90;56.90;;;;;;5037931;28;20120;-64
2021/06/29 11:38:51;;;;;;;4.57;2.88;;;26.90;57.00;;;;;;5029654;28;20044;-64
2021/06/29 11:41:29;;;;;;;3.75;3.15;;;26.90;57.00;;;;;;5031222;28;20042;-64
2021/06/29 11:43:59;;;;;;;4.65;3.20;;;26.90;56.90;;;;;;5025070;28;20041;-66
2021/06/29 11:46:49;;;;;;;3.13;2.80;;;26.90;56.20;;;;;;5028887;28;20029;-64
2021/06/29 11:49:18;;;;;;;3.10;2.80;;;26.90;56.00;;;;;;5027075;28;20278;-64
2021/06/29 11:51:56;;;;;;;4.47;3.08;;;26.80;55.60;;;;;;5026795;28;20139;-64
2021/06/29 11:54:43;;;;;;;4.22;2.97;;;26.80;55.90;;;;;;5030082;28;20029;-64
2021/06/29 11:57:26;;;;;;;4.95;2.95;;;26.70;55.70;;;;;;5026740;28;20118;-62
2021/06/29 11:59:56;;;;;;;4.93;3.30;;;26.70;55.80;;;;;;5025759;28;20112;-64
2021/06/29 12:02:24;;;;;;;3.95;3.10;;;26.70;55.90;;;;;;5028585;28;20028;-63
2021/06/29 12:05:16;;;;;;;4.40;3.92;;;26.60;55.60;;;;;;5030186;28;20037;-63
2021/06/29 12:07:48;;;;;;;4.40;3.30;;;26.60;55.80;;;;;;5033795;28;20439;-64
2021/06/29 12:10:30;;;;;;;6.03;3.38;;;26.60;55.70;;;;;;5033280;28;20688;-63
2021/06/29 12:12:57;;;;;;;5.82;3.55;;;26.60;55.60;;;;;;5038133;28;20057;-65
2021/06/29 12:15:24;;;;;;;4.90;3.33;;;26.60;55.70;;;;;;5033983;28;20036;-64
2021/06/29 12:18:03;;;;;;;4.18;3.60;;;26.50;56.00;;;;;;5026776;28;20037;-64
2021/06/29 12:20:36;;;;;;;4.93;3.20;;;26.60;56.10;;;;;;5033609;28;20678;-63
2021/06/29 12:23:03;;;;;;;3.70;3.22;;;26.60;56.30;;;;;;5033597;28;20668;-64
2021/06/29 12:25:33;;;;;;;3.63;3.25;;;26.50;56.60;;;;;;5026825;28;20040;-63
2021/06/29 12:28:03;;;;;;;3.75;3.45;;;26.50;57.00;;;;;;5034194;28;20044;-65
2021/06/29 12:30:54;;;;;;;4.32;3.42;;;26.50;57.40;;;;;;5029379;28;20025;-65
2021/06/29 12:33:31;;;;;;;6.28;3.60;;;26.50;58.10;;;;;;5027576;28;20396;-65
2021/06/29 12:36:13;;;;;;;5.55;3.67;;;26.40;58.40;;;;;;5020596;28;20023;-65
2021/06/29 12:38:48;;;;;;;4.13;3.60;;;26.40;59.00;;;;;;5025512;28;20025;-65
2021/06/29 12:41:36;;;;;;;4.80;3.70;;;26.30;59.50;;;;;;5036617;28;20048;-65
2021/06/29 12:44:04;;;;;;;4.03;3.63;;;26.30;60.10;;;;;;5037308;28;20125;-64
2021/06/29 12:46:33;;;;;;;4.22;3.83;;;26.30;60.80;;;;;;5042058;28;20114;-64
2021/06/29 12:49:06;;;;;;;5.90;4.03;;;26.30;60.80;;;;;;5030540;28;20512;-65
2021/06/29 12:51:40;;;;;;;4.57;3.55;;;26.30;60.80;;;;;;5022897;28;20036;-64
2021/06/29 12:54:12;;;;;;;3.92;3.53;;;26.30;61.00;;;;;;5025387;28;20854;-65
2021/06/29 12:56:41;;;;;;;3.97;3.53;;;26.30;60.80;;;;;;5028628;28;20025;-63